Burnside, PA (15721)

5:21 PM EDT on September 04, 2015 (GMT -0400)
NE Indiana County Pa. | | Change Station
CLOSE
Current Station
Personal Weather Station
Location: Cherry Tree, PA
Elevation: 1601 ft
Nearby Weather Stations

Elev 1601 ft 40.78 °N, 78.81 °W | Updated 1 minute ago

Partly Cloudy
Partly Cloudy
77.3 °F
Feels Like 79 °F
N
0.0
Wind Variable Wind from SE
Gusts 1.0 mph

Today
High -- | Low -- °F
--% Chance of Precip.
Yesterday
High -- | Low -- °F
Precip. -- in
6:44 AM 7:43 PM
Waning Gibbous, 56% visible
Pressure 30.11 in
Visibility 7.0 miles
Clouds Few 3400 ft
Scattered Clouds 6000 ft
Mostly Cloudy 12000 ft
Heat Index 79 °F
Dew Point 72 °F
Humidity 83%
Rainfall 0.00 in
Snow Depth Not available.
UV 1 out of 12
Pollen 8.50 out of 12
Air Quality Not available.
Flu Activity Not available.
METAR KIDI 042115Z AUTO 00000KT 7SM FEW034 SCT060 BKN120 22/19 A3011 RMK A01
Pressure 30.11 in
Visibility 7.0 miles
Clouds Few 3400 ft
Scattered Clouds 6000 ft
Mostly Cloudy 12000 ft
Heat Index 79 °F
Dew Point 72 °F
Humidity 83%
Rainfall 0.00 in
Snow Depth Not available.
UV 1 out of 12
Pollen 8.50 out of 12
Air Quality Not available.
Flu Activity Not available.
METAR KIDI 042115Z AUTO 00000KT 7SM FEW034 SCT060 BKN120 22/19 A3011 RMK A01

10-Day Weather Forecast

×

Almanac

Astronomy

Sep. 04, 2015 Rise Set
Actual Time
Civil Twilight
Nautical Twilight
Astronomical Twilight
Moon
Length of Visible Light
Length of Day
Tomorrow will be .
, % of the Moon is Illuminated

Today's Extremes

State Highs State Lows

Community

WunderPhotos

Upload Photos

1,852,297 photos uploaded!

WunderBlogs® & News

Nearby

Air Quality

  Air Quality AQ Index Pollutant
Not available.

Snow Depth

Station Depth Elevation

Earthquake Activity

City Distance Mag. Time & Date
Minimum magnitude displayed is 2.5.

Coastal Water Temperatures

Place Temperature

Stations

Nearby Weather Stations

Station Location Temp. Windchill Dew Point Humidity Wind Precip. Elev Updated Type